weather.gov     
National Weather Service

Terminal Aerodrome Forecast
NWS Homepage
This page is being discontinued on March 12, 2014.
The same data is available at this site. Please update your bookmarks.
Thank you, and we apologize for the inconvenience.
Please send an email to SR-SRH.Webmaster@noaa.gov with any concerns.


Current Version
Previous Version:    01  02  03  04  05  06  07  08  09  10  11  12  13  14  15  16  17  18  19  20  21  22  23  24  25  26  27  28  29  30  
   31  32  33  34  35  36  37  38  39  40  41  
[Printable]
850
FTUS41 KBOX 212330
TAFBDL
TAF
KBDL 212330Z 2200/2306 15005KT P6SM SCT030 OVC060
     FM220500 15004KT P6SM -SHRA OVC050
     FM220800 VRB03KT P6SM -SHRA OVC020
     FM221200 VRB03KT 3SM BR OVC015
     FM221400 07004KT P6SM OVC015
     FM221700 07005KT P6SM OVC035
     FM222200 06004KT P6SM OVC030=




850
FTUS41 KBOX 212330
TAFBDL
TAF
KBDL 212330Z 2200/2306 15005KT P6SM SCT030 OVC060
     FM220500 15004KT P6SM -SHRA OVC050
     FM220800 VRB03KT P6SM -SHRA OVC020
     FM221200 VRB03KT 3SM BR OVC015
     FM221400 07004KT P6SM OVC015
     FM221700 07005KT P6SM OVC035
     FM222200 06004KT P6SM OVC030=


U.S. Dept. of Commerce
NOAA National Weather Service
1325 East West Highway
Silver Spring, MD 20910
E-mail: w-nws.webmaster@noaa.gov
Page last modified: May 16, 2007
NATIONAL WEATHER SERVICE: for Safety, for Work, for Fun - FOR LIFE